CHH0880 ZSPD-ZJSY
Flight info
| Callsign | CHH0880 |
|---|---|
| Flight time | N/A |
| Altitude | 361 |
| Route | NXD W131 AKDIM A470 DUBGO W134 ELNEX A599 PLT W19 NOMAR W18 NLG V19 UDUTI V20 BIGRO G221 UPRIS |
| Aircraft | B738/L-CHH/L |
Departure
| Time | 2026-04-30 13:47 |
|---|---|
| Airport | Shanghai Pudong International Airport (ZSPD) |
Arrival
| Time | N/A |
|---|---|
| Airport | Sanya Phoenix International Airport (ZJSY) |
| Time | Latitude | Longitude | Altitude | Speed | Heading |
|---|---|---|---|---|---|
| 2026-04-30 12:59 | 31.13896 | 121.79907 | 21 ft | 0 kts | 251° |
| 2026-04-30 13:31 | 31.13897 | 121.79909 | 21 ft | 1 kts | 252° |
| 2026-04-30 13:32 | 31.13904 | 121.79937 | 21 ft | 2 kts | 252° |
| 2026-04-30 13:32 | 31.13908 | 121.79977 | 21 ft | 2 kts | 294° |
| 2026-04-30 13:33 | 31.13890 | 121.79998 | 22 ft | 0 kts | 340° |
| 2026-04-30 13:33 | 31.13883 | 121.80000 | 22 ft | 0 kts | 343° |
| 2026-04-30 13:36 | 31.13893 | 121.79997 | 21 ft | 6 kts | 343° |
| 2026-04-30 13:37 | 31.13966 | 121.79970 | 21 ft | 9 kts | 341° |
| 2026-04-30 13:37 | 31.14011 | 121.79951 | 22 ft | 1 kts | 341° |
| 2026-04-30 13:38 | 31.14041 | 121.79939 | 22 ft | 4 kts | 343° |
| 2026-04-30 13:38 | 31.14082 | 121.79925 | 23 ft | 3 kts | 330° |
| 2026-04-30 13:38 | 31.14060 | 121.79782 | 23 ft | 13 kts | 254° |
| 2026-04-30 13:39 | 31.14030 | 121.79582 | 23 ft | 14 kts | 283° |
| 2026-04-30 13:39 | 31.14117 | 121.79546 | 24 ft | 4 kts | 37° |
| 2026-04-30 13:40 | 31.14142 | 121.79549 | 24 ft | 5 kts | 351° |
| 2026-04-30 13:40 | 31.14173 | 121.79546 | 25 ft | 8 kts | 355° |
| 2026-04-30 13:40 | 31.14279 | 121.79514 | 25 ft | 15 kts | 341° |
| 2026-04-30 13:40 | 31.14341 | 121.79491 | 25 ft | 14 kts | 342° |
| 2026-04-30 13:41 | 31.14434 | 121.79456 | 25 ft | 14 kts | 342° |
| 2026-04-30 13:41 | 31.14560 | 121.79409 | 25 ft | 14 kts | 342° |
| 2026-04-30 13:41 | 31.14654 | 121.79373 | 25 ft | 13 kts | 342° |
| 2026-04-30 13:41 | 31.14746 | 121.79339 | 25 ft | 14 kts | 342° |
| 2026-04-30 13:42 | 31.14810 | 121.79315 | 25 ft | 14 kts | 342° |
| 2026-04-30 13:42 | 31.14943 | 121.79265 | 23 ft | 15 kts | 342° |
| 2026-04-30 13:42 | 31.15146 | 121.79188 | 21 ft | 15 kts | 342° |
| 2026-04-30 13:43 | 31.15249 | 121.79148 | 20 ft | 16 kts | 341° |
| 2026-04-30 13:43 | 31.15358 | 121.79106 | 19 ft | 17 kts | 342° |
| 2026-04-30 13:43 | 31.15433 | 121.79078 | 18 ft | 16 kts | 343° |
| 2026-04-30 13:43 | 31.15577 | 121.79024 | 20 ft | 15 kts | 342° |
| 2026-04-30 13:44 | 31.15675 | 121.78988 | 21 ft | 13 kts | 342° |
| 2026-04-30 13:44 | 31.15767 | 121.78954 | 21 ft | 14 kts | 342° |
| 2026-04-30 13:44 | 31.15859 | 121.78919 | 21 ft | 14 kts | 342° |
| 2026-04-30 13:44 | 31.15921 | 121.78895 | 21 ft | 14 kts | 342° |
| 2026-04-30 13:45 | 31.16040 | 121.78850 | 22 ft | 6 kts | 342° |
| 2026-04-30 13:45 | 31.16084 | 121.78833 | 21 ft | 7 kts | 342° |
| 2026-04-30 13:45 | 31.16129 | 121.78808 | 21 ft | 7 kts | 318° |
| 2026-04-30 13:46 | 31.16151 | 121.78758 | 21 ft | 7 kts | 271° |
| 2026-04-30 13:46 | 31.16139 | 121.78701 | 21 ft | 7 kts | 250° |
| 2026-04-30 13:46 | 31.16116 | 121.78648 | 21 ft | 7 kts | 230° |
| 2026-04-30 13:46 | 31.16070 | 121.78625 | 21 ft | 7 kts | 179° |
| 2026-04-30 13:47 | 31.16016 | 121.78642 | 21 ft | 11 kts | 162° |
| 2026-04-30 13:47 | 31.15574 | 121.78805 | 22 ft | 123 kts | 162° |
| 2026-04-30 13:47 | 31.14469 | 121.79236 | 251 ft | 193 kts | 161° |
| 2026-04-30 13:47 | 31.13220 | 121.79761 | 781 ft | 187 kts | 160° |
| 2026-04-30 13:48 | 31.11934 | 121.80300 | 1271 ft | 214 kts | 161° |
| 2026-04-30 13:48 | 31.10965 | 121.80646 | 1499 ft | 225 kts | 165° |
| 2026-04-30 13:48 | 31.08799 | 121.81292 | 1999 ft | 251 kts | 166° |
| 2026-04-30 13:48 | 31.07091 | 121.81821 | 2369 ft | 256 kts | 165° |
| 2026-04-30 13:49 | 31.05373 | 121.82375 | 2744 ft | 260 kts | 165° |
| 2026-04-30 13:49 | 31.03601 | 121.82878 | 3123 ft | 263 kts | 173° |
| 2026-04-30 13:49 | 31.01772 | 121.82818 | 3500 ft | 261 kts | 193° |
| 2026-04-30 13:49 | 31.00103 | 121.82079 | 3875 ft | 261 kts | 215° |
| 2026-04-30 13:50 | 30.99163 | 121.81197 | 4128 ft | 256 kts | 231° |
| 2026-04-30 13:50 | 30.97469 | 121.76909 | 5015 ft | 251 kts | 257° |
| 2026-04-30 13:50 | 30.97129 | 121.75607 | 5268 ft | 253 kts | 257° |
| 2026-04-30 13:51 | 30.96451 | 121.73000 | 5772 ft | 253 kts | 260° |
| 2026-04-30 13:51 | 30.96240 | 121.71689 | 6015 ft | 249 kts | 270° |
| 2026-04-30 13:51 | 30.96537 | 121.69057 | 6663 ft | 245 kts | 288° |
| 2026-04-30 13:51 | 30.96966 | 121.67152 | 7151 ft | 244 kts | 288° |
| 2026-04-30 13:52 | 30.97240 | 121.65869 | 7493 ft | 242 kts | 287° |
| 2026-04-30 13:52 | 30.97741 | 121.63306 | 8158 ft | 246 kts | 286° |
| 2026-04-30 13:52 | 30.98098 | 121.61377 | 8659 ft | 245 kts | 285° |
| 2026-04-30 13:52 | 30.98447 | 121.59468 | 9163 ft | 246 kts | 285° |
| 2026-04-30 13:53 | 30.98685 | 121.58173 | 9489 ft | 245 kts | 285° |
| 2026-04-30 13:53 | 30.99041 | 121.56234 | 9937 ft | 245 kts | 285° |
| 2026-04-30 13:53 | 30.99395 | 121.54307 | 10360 ft | 243 kts | 285° |
| 2026-04-30 13:53 | 30.99750 | 121.52379 | 10780 ft | 247 kts | 285° |
| 2026-04-30 13:54 | 31.00222 | 121.49811 | 11274 ft | 250 kts | 286° |
| 2026-04-30 13:54 | 31.00611 | 121.47717 | 11810 ft | 273 kts | 286° |
| 2026-04-30 13:54 | 31.00880 | 121.46265 | 12350 ft | 281 kts | 286° |
| 2026-04-30 13:54 | 31.01439 | 121.43248 | 13342 ft | 298 kts | 286° |
| 2026-04-30 13:55 | 31.01884 | 121.40833 | 14082 ft | 311 kts | 286° |
| 2026-04-30 13:55 | 31.02343 | 121.38336 | 14751 ft | 324 kts | 285° |
| 2026-04-30 13:55 | 31.02825 | 121.35711 | 15326 ft | 338 kts | 285° |
| 2026-04-30 13:55 | 31.03151 | 121.33933 | 15810 ft | 344 kts | 285° |
| 2026-04-30 13:56 | 31.03810 | 121.30318 | 17080 ft | 346 kts | 284° |
| 2026-04-30 13:56 | 31.04312 | 121.27557 | 18014 ft | 349 kts | 285° |
| 2026-04-30 13:56 | 31.04649 | 121.25709 | 18505 ft | 353 kts | 284° |
| 2026-04-30 13:56 | 31.05155 | 121.22936 | 19329 ft | 357 kts | 284° |
| 2026-04-30 13:57 | 31.05844 | 121.19155 | 20468 ft | 360 kts | 284° |
| 2026-04-30 13:57 | 31.05955 | 121.18548 | 20670 ft | 360 kts | 284° |
| 2026-04-30 13:57 | 31.06513 | 121.14689 | 21657 ft | 368 kts | 278° |
| 2026-04-30 13:57 | 31.06546 | 121.11713 | 22405 ft | 376 kts | 270° |
| 2026-04-30 13:58 | 31.06305 | 121.09703 | 22902 ft | 381 kts | 264° |
| 2026-04-30 13:58 | 31.04705 | 121.02657 | 24430 ft | 391 kts | 259° |
| 2026-04-30 13:58 | 31.03920 | 120.99604 | 24988 ft | 396 kts | 259° |
| 2026-04-30 13:59 | 31.03129 | 120.96528 | 25651 ft | 399 kts | 259° |
| 2026-04-30 13:59 | 31.02339 | 120.93445 | 26256 ft | 402 kts | 260° |
| 2026-04-30 13:59 | 31.01811 | 120.91370 | 26691 ft | 403 kts | 259° |
| 2026-04-30 13:59 | 31.00758 | 120.87201 | 27509 ft | 406 kts | 260° |
| 2026-04-30 14:00 | 31.00222 | 120.85070 | 27884 ft | 408 kts | 260° |
| 2026-04-30 14:00 | 30.98375 | 120.77728 | 29742 ft | 400 kts | 260° |
| 2026-04-30 14:00 | 30.97586 | 120.74595 | 30632 ft | 393 kts | 261° |
| 2026-04-30 14:01 | 30.96828 | 120.71577 | 31290 ft | 391 kts | 261° |
| 2026-04-30 14:01 | 30.96322 | 120.69554 | 31673 ft | 390 kts | 261° |
| 2026-04-30 14:01 | 30.95309 | 120.65501 | 32140 ft | 393 kts | 260° |
| 2026-04-30 14:01 | 30.94549 | 120.62463 | 32180 ft | 392 kts | 261° |
| 2026-04-30 14:02 | 30.93029 | 120.56401 | 32195 ft | 391 kts | 261° |
| 2026-04-30 14:02 | 30.91759 | 120.51362 | 32198 ft | 389 kts | 261° |
| 2026-04-30 14:03 | 30.89801 | 120.45451 | 32202 ft | 401 kts | 252° |
| 2026-04-30 14:03 | 30.85968 | 120.39132 | 32199 ft | 424 kts | 238° |
| 2026-04-30 14:04 | 30.81386 | 120.34586 | 32198 ft | 442 kts | 226° |
| 2026-04-30 14:04 | 30.76140 | 120.30846 | 32196 ft | 445 kts | 223° |
| 2026-04-30 14:05 | 30.71694 | 120.27718 | 32204 ft | 446 kts | 224° |
| 2026-04-30 14:05 | 30.66520 | 120.23830 | 32191 ft | 438 kts | 226° |
| 2026-04-30 14:06 | 30.58139 | 120.17127 | 32206 ft | 438 kts | 227° |
| 2026-04-30 14:07 | 30.51480 | 120.11691 | 32207 ft | 440 kts | 227° |
| 2026-04-30 14:08 | 30.43202 | 120.04957 | 32205 ft | 436 kts | 226° |
| 2026-04-30 14:08 | 30.40611 | 120.03046 | 32211 ft | 447 kts | 224° |
| 2026-04-30 14:08 | 30.35199 | 119.99424 | 32203 ft | 445 kts | 222° |
| 2026-04-30 14:09 | 30.30712 | 119.96523 | 32209 ft | 443 kts | 222° |
| 2026-04-30 14:10 | 30.22583 | 119.91207 | 32203 ft | 449 kts | 222° |
| 2026-04-30 14:10 | 30.16309 | 119.87080 | 32206 ft | 441 kts | 223° |
| 2026-04-30 14:11 | 30.10926 | 119.83508 | 32206 ft | 444 kts | 223° |
| 2026-04-30 14:11 | 30.06471 | 119.80565 | 32201 ft | 440 kts | 223° |
| 2026-04-30 14:12 | 30.00289 | 119.76450 | 32209 ft | 444 kts | 223° |
| 2026-04-30 14:12 | 29.94964 | 119.72854 | 32201 ft | 443 kts | 223° |
| 2026-04-30 14:13 | 29.89639 | 119.69273 | 32205 ft | 447 kts | 223° |
| 2026-04-30 14:13 | 29.84327 | 119.65684 | 32206 ft | 438 kts | 224° |
| 2026-04-30 14:14 | 29.79225 | 119.61815 | 32206 ft | 440 kts | 227° |
| 2026-04-30 14:14 | 29.74248 | 119.57838 | 32206 ft | 440 kts | 227° |
| 2026-04-30 14:15 | 29.69241 | 119.53848 | 32211 ft | 436 kts | 227° |
| 2026-04-30 14:15 | 29.64281 | 119.49732 | 32203 ft | 430 kts | 231° |
| 2026-04-30 14:15 | 29.62084 | 119.47480 | 32203 ft | 419 kts | 235° |
| 2026-04-30 14:16 | 29.60704 | 119.45905 | 32207 ft | 416 kts | 237° |
| 2026-04-30 14:16 | 29.56112 | 119.40171 | 32209 ft | 419 kts | 239° |
| 2026-04-30 14:17 | 29.52865 | 119.36006 | 32206 ft | 417 kts | 239° |
| 2026-04-30 14:17 | 29.48349 | 119.30206 | 32202 ft | 419 kts | 239° |
| 2026-04-30 14:18 | 29.45127 | 119.26093 | 32206 ft | 419 kts | 239° |
| 2026-04-30 14:18 | 29.39297 | 119.18676 | 32209 ft | 415 kts | 238° |
| 2026-04-30 14:19 | 29.33480 | 119.11296 | 32210 ft | 419 kts | 238° |
| 2026-04-30 14:20 | 29.28938 | 119.05561 | 32208 ft | 415 kts | 238° |
| 2026-04-30 14:20 | 29.23117 | 118.98234 | 32207 ft | 414 kts | 238° |
| 2026-04-30 14:21 | 29.19173 | 118.93269 | 32205 ft | 414 kts | 237° |
| 2026-04-30 14:22 | 29.13285 | 118.85879 | 32208 ft | 417 kts | 238° |
| 2026-04-30 14:22 | 29.07383 | 118.78483 | 32210 ft | 418 kts | 237° |
| 2026-04-30 14:23 | 28.99550 | 118.68693 | 32209 ft | 418 kts | 237° |
| 2026-04-30 14:24 | 28.93655 | 118.61335 | 32210 ft | 419 kts | 237° |
| 2026-04-30 14:25 | 28.86423 | 118.52332 | 32213 ft | 422 kts | 237° |
| 2026-04-30 14:26 | 28.79814 | 118.44122 | 32216 ft | 423 kts | 236° |
| 2026-04-30 14:27 | 28.73859 | 118.36738 | 32217 ft | 421 kts | 236° |
| 2026-04-30 14:27 | 28.69891 | 118.31825 | 32219 ft | 424 kts | 236° |
| 2026-04-30 14:28 | 28.63895 | 118.24403 | 32220 ft | 428 kts | 235° |
| 2026-04-30 14:28 | 28.59860 | 118.19427 | 32222 ft | 427 kts | 236° |
| 2026-04-30 14:29 | 28.52494 | 118.10349 | 32221 ft | 428 kts | 235° |
| 2026-04-30 14:31 | 28.41733 | 117.97127 | 32223 ft | 429 kts | 235° |
| 2026-04-30 14:31 | 28.35539 | 117.89728 | 32224 ft | 428 kts | 234° |
| 2026-04-30 14:32 | 28.29278 | 117.82379 | 32224 ft | 433 kts | 234° |
| 2026-04-30 14:33 | 28.25115 | 117.77492 | 32224 ft | 432 kts | 233° |
| 2026-04-30 14:33 | 28.18856 | 117.70140 | 32223 ft | 433 kts | 233° |
| 2026-04-30 14:34 | 28.14683 | 117.65239 | 32223 ft | 432 kts | 233° |
| 2026-04-30 14:34 | 28.10511 | 117.60347 | 32223 ft | 431 kts | 233° |
| 2026-04-30 14:35 | 28.04197 | 117.52944 | 32223 ft | 432 kts | 233° |
| 2026-04-30 14:36 | 28.00677 | 117.48825 | 32220 ft | 436 kts | 233° |
| 2026-04-30 14:36 | 27.96475 | 117.43909 | 32218 ft | 436 kts | 233° |
| 2026-04-30 14:37 | 27.91551 | 117.38158 | 32221 ft | 437 kts | 233° |
| 2026-04-30 14:37 | 27.88027 | 117.34048 | 32222 ft | 438 kts | 232° |
| 2026-04-30 14:38 | 27.83097 | 117.28303 | 32223 ft | 437 kts | 232° |
| 2026-04-30 14:38 | 27.78864 | 117.23376 | 32220 ft | 437 kts | 232° |
| 2026-04-30 14:39 | 27.74609 | 117.18431 | 32218 ft | 439 kts | 232° |
| 2026-04-30 14:39 | 27.70396 | 117.13541 | 32215 ft | 437 kts | 232° |
| 2026-04-30 14:40 | 27.64022 | 117.06154 | 32214 ft | 438 kts | 232° |
| 2026-04-30 14:40 | 27.59751 | 117.01211 | 32215 ft | 437 kts | 232° |
| 2026-04-30 14:41 | 27.55515 | 116.96315 | 32215 ft | 439 kts | 232° |
| 2026-04-30 14:41 | 27.51974 | 116.92225 | 32214 ft | 438 kts | 231° |
| 2026-04-30 14:42 | 27.47013 | 116.86449 | 32212 ft | 437 kts | 232° |
| 2026-04-30 14:42 | 27.42807 | 116.81519 | 32210 ft | 438 kts | 232° |
| 2026-04-30 14:43 | 27.39308 | 116.77419 | 32210 ft | 438 kts | 232° |
| 2026-04-30 14:43 | 27.34370 | 116.71646 | 32210 ft | 438 kts | 232° |
| 2026-04-30 14:44 | 27.30149 | 116.66721 | 32211 ft | 440 kts | 232° |
| 2026-04-30 14:44 | 27.25914 | 116.61790 | 32212 ft | 437 kts | 231° |
| 2026-04-30 14:45 | 27.21713 | 116.56905 | 32212 ft | 437 kts | 231° |
| 2026-04-30 14:45 | 27.17521 | 116.51954 | 32212 ft | 438 kts | 232° |
| 2026-04-30 14:46 | 27.13369 | 116.46912 | 32211 ft | 438 kts | 233° |
| 2026-04-30 14:46 | 27.09939 | 116.42733 | 32212 ft | 438 kts | 233° |
| 2026-04-30 14:47 | 27.05802 | 116.37706 | 32211 ft | 438 kts | 233° |
| 2026-04-30 14:47 | 27.00996 | 116.31890 | 32213 ft | 439 kts | 232° |
| 2026-04-30 14:48 | 26.97528 | 116.27704 | 32215 ft | 439 kts | 232° |
| 2026-04-30 14:48 | 26.92686 | 116.21867 | 32214 ft | 440 kts | 232° |
| 2026-04-30 14:49 | 26.88501 | 116.16808 | 32213 ft | 440 kts | 232° |
| 2026-04-30 14:49 | 26.84371 | 116.11775 | 32217 ft | 439 kts | 232° |
| 2026-04-30 14:50 | 26.78155 | 116.04202 | 32206 ft | 440 kts | 232° |
| 2026-04-30 14:51 | 26.72629 | 115.97489 | 32210 ft | 440 kts | 232° |
| 2026-04-30 14:52 | 26.65705 | 115.89100 | 32207 ft | 441 kts | 232° |
| 2026-04-30 14:52 | 26.59472 | 115.81562 | 32205 ft | 441 kts | 232° |
| 2026-04-30 14:53 | 26.53214 | 115.74004 | 32202 ft | 442 kts | 232° |
| 2026-04-30 14:54 | 26.45573 | 115.64797 | 32207 ft | 440 kts | 232° |
| 2026-04-30 14:55 | 26.38627 | 115.56444 | 32202 ft | 440 kts | 232° |
| 2026-04-30 14:56 | 26.30293 | 115.46448 | 32195 ft | 442 kts | 232° |
| 2026-04-30 14:57 | 26.23863 | 115.39006 | 32159 ft | 448 kts | 231° |
| 2026-04-30 14:58 | 26.15811 | 115.29279 | 32195 ft | 442 kts | 232° |
| 2026-04-30 14:58 | 26.09591 | 115.21742 | 32195 ft | 443 kts | 231° |
| 2026-04-30 15:00 | 25.99081 | 115.09189 | 32195 ft | 442 kts | 231° |
| 2026-04-30 15:01 | 25.90687 | 114.99220 | 32200 ft | 443 kts | 231° |
| 2026-04-30 15:01 | 25.84350 | 114.91776 | 32204 ft | 444 kts | 229° |
| 2026-04-30 15:02 | 25.79356 | 114.87642 | 32198 ft | 458 kts | 211° |
| 2026-04-30 15:03 | 25.70051 | 114.84606 | 32210 ft | 465 kts | 198° |
| 2026-04-30 15:03 | 25.63684 | 114.83096 | 32218 ft | 467 kts | 197° |
| 2026-04-30 15:04 | 25.47826 | 114.79305 | 32215 ft | 467 kts | 198° |
| 2026-04-30 15:06 | 25.31958 | 114.75399 | 32217 ft | 467 kts | 198° |
| 2026-04-30 15:07 | 25.19249 | 114.72265 | 32206 ft | 469 kts | 198° |
| 2026-04-30 15:08 | 25.06441 | 114.69111 | 32202 ft | 470 kts | 197° |
| 2026-04-30 15:09 | 24.90419 | 114.65181 | 32199 ft | 470 kts | 197° |
| 2026-04-30 15:10 | 24.77664 | 114.62051 | 32196 ft | 468 kts | 197° |
| 2026-04-30 15:11 | 24.65484 | 114.57431 | 32194 ft | 461 kts | 212° |
| 2026-04-30 15:11 | 24.59901 | 114.54004 | 32197 ft | 458 kts | 214° |
| 2026-04-30 15:13 | 24.46153 | 114.45165 | 32198 ft | 457 kts | 214° |
| 2026-04-30 15:14 | 24.26761 | 114.32943 | 32195 ft | 458 kts | 213° |
| 2026-04-30 15:17 | 24.01803 | 114.17352 | 32199 ft | 460 kts | 213° |
| 2026-04-30 15:19 | 23.79543 | 114.03495 | 32186 ft | 458 kts | 213° |